Time;durP1;ratioP1;P1;durP2;ratioP2;P2;SDS_P1;SDS_P2;PMS_P1;PMS_P2;Temp;Humidity;BMP_temperature;BMP_pressure;BME280_temperature;BME280_humidity;BME280_pressure;Samples;Min_cycle;Max_cycle;Signal;HPM_P1;HPM_P2
2024/03/01 00:01:16;;;;;;;206.70;131.82;;;19.10;76.40;;;;;;5073310;28;20012;-65
2024/03/01 00:03:42;;;;;;;206.25;129.15;;;19.10;76.40;;;;;;5073435;28;20028;-64
2024/03/01 00:06:11;;;;;;;205.73;128.52;;;19.10;76.50;;;;;;5073656;28;20025;-66
2024/03/01 00:08:36;;;;;;;199.95;128.30;;;19.10;76.60;;;;;;5073024;28;20033;-66
2024/03/01 00:11:02;;;;;;;209.95;130.40;;;19.10;76.60;;;;;;5073243;28;20174;-63
2024/03/01 00:13:27;;;;;;;200.50;126.72;;;19.10;76.60;;;;;;5073558;28;20051;-63
2024/03/01 00:15:55;;;;;;;192.07;124.35;;;19.10;76.90;;;;;;5073420;28;20107;-63
2024/03/01 00:18:20;;;;;;;200.15;128.68;;;19.10;77.00;;;;;;5073040;28;20020;-63
2024/03/01 00:20:46;;;;;;;202.07;127.15;;;19.10;77.00;;;;;;5073061;28;20016;-63
2024/03/01 00:23:12;;;;;;;196.50;122.90;;;19.20;77.10;;;;;;5065835;28;20131;-62
2024/03/01 00:25:38;;;;;;;191.35;120.82;;;19.10;77.00;;;;;;5073175;28;20099;-64
2024/03/01 00:28:03;;;;;;;189.77;123.57;;;19.10;77.10;;;;;;5073051;28;20059;-63
2024/03/01 00:30:29;;;;;;;187.95;122.85;;;19.10;77.00;;;;;;5072986;28;20039;-62
2024/03/01 00:32:55;;;;;;;194.82;121.53;;;19.20;77.00;;;;;;5072781;28;20091;-60
2024/03/01 00:35:20;;;;;;;192.40;122.05;;;19.10;76.90;;;;;;5073157;28;20021;-61
2024/03/01 00:37:46;;;;;;;185.73;118.30;;;19.20;77.00;;;;;;5072929;28;20483;-62
2024/03/01 00:40:11;;;;;;;183.43;119.13;;;19.20;77.10;;;;;;5072743;28;20149;-62
2024/03/01 00:42:38;;;;;;;187.25;118.97;;;19.20;76.90;;;;;;5073103;28;20040;-61
2024/03/01 00:45:04;;;;;;;181.30;117.95;;;19.20;76.80;;;;;;5073447;28;20035;-61
2024/03/01 00:47:29;;;;;;;176.10;113.82;;;19.20;76.70;;;;;;5073010;28;20078;-61
2024/03/01 00:49:55;;;;;;;177.20;114.03;;;19.20;76.50;;;;;;5073649;28;20458;-60
2024/03/01 00:52:20;;;;;;;179.77;116.43;;;19.10;76.40;;;;;;5073106;28;20037;-65
2024/03/01 00:54:46;;;;;;;173.20;112.78;;;19.20;76.40;;;;;;5073121;28;20024;-63
2024/03/01 00:57:12;;;;;;;178.52;113.05;;;19.20;76.20;;;;;;5072761;28;20078;-64
2024/03/01 00:59:37;;;;;;;175.60;111.78;;;19.20;76.20;;;;;;5072639;28;20099;-62
2024/03/01 01:02:05;;;;;;;168.75;109.38;;;19.20;76.20;;;;;;5072239;28;20028;-61
2024/03/01 01:04:31;;;;;;;162.77;108.00;;;19.20;76.40;;;;;;5072545;28;20025;-62
2024/03/01 01:06:56;;;;;;;167.88;108.63;;;19.20;76.30;;;;;;5072687;28;20423;-62
2024/03/01 01:09:22;;;;;;;165.65;106.65;;;19.20;76.10;;;;;;5072318;28;20031;-63
2024/03/01 01:11:48;;;;;;;169.98;108.85;;;19.20;76.00;;;;;;5072123;28;20032;-62
2024/03/01 01:14:14;;;;;;;165.77;107.45;;;19.20;76.00;;;;;;5072378;28;20086;-61
2024/03/01 01:16:39;;;;;;;162.38;104.53;;;19.20;76.00;;;;;;5072117;28;20032;-62
2024/03/01 01:19:05;;;;;;;161.10;104.82;;;19.20;76.00;;;;;;5071877;28;20025;-61
2024/03/01 01:21:33;;;;;;;160.95;105.60;;;19.20;76.00;;;;;;5067409;28;20104;-62
2024/03/01 01:24:00;;;;;;;163.15;106.13;;;19.20;76.00;;;;;;5068360;28;20558;-61
2024/03/01 01:26:25;;;;;;;159.55;103.43;;;19.20;76.00;;;;;;5071991;28;20020;-61
2024/03/01 01:28:53;;;;;;;163.10;103.57;;;19.20;75.90;;;;;;5071870;28;20058;-62
2024/03/01 01:31:19;;;;;;;164.30;104.35;;;19.20;75.90;;;;;;5071592;28;20031;-61
2024/03/01 01:33:45;;;;;;;156.60;100.15;;;19.20;75.90;;;;;;5071897;28;20653;-62
2024/03/01 01:36:10;;;;;;;154.57;100.75;;;19.20;75.90;;;;;;5071755;28;20103;-63
2024/03/01 01:38:36;;;;;;;158.48;102.07;;;19.20;75.90;;;;;;5071535;28;20099;-62
2024/03/01 01:41:02;;;;;;;153.68;99.80;;;19.20;75.90;;;;;;5070181;28;20280;-61
2024/03/01 01:43:27;;;;;;;158.45;100.10;;;19.20;76.00;;;;;;5071760;28;20024;-62
2024/03/01 01:45:54;;;;;;;151.10;94.93;;;19.20;76.00;;;;;;5071576;28;20480;-61
2024/03/01 01:48:20;;;;;;;144.75;93.18;;;19.20;76.60;;;;;;5071680;28;20028;-61
2024/03/01 01:50:46;;;;;;;152.68;99.45;;;19.20;76.80;;;;;;5071568;28;20032;-61
2024/03/01 01:53:12;;;;;;;151.45;99.80;;;19.20;77.10;;;;;;5071502;28;20032;-64
2024/03/01 01:55:40;;;;;;;146.90;95.43;;;19.20;77.10;;;;;;5073340;28;20422;-63
2024/03/01 01:58:06;;;;;;;148.15;96.07;;;19.20;77.20;;;;;;5072974;28;20036;-62
2024/03/01 02:00:33;;;;;;;149.77;96.00;;;19.30;77.30;;;;;;5074406;28;20040;-63
2024/03/01 02:02:59;;;;;;;144.60;95.53;;;19.30;77.30;;;;;;5072491;28;20145;-62
2024/03/01 02:05:25;;;;;;;146.93;94.10;;;19.20;77.30;;;;;;5072317;28;20112;-62
2024/03/01 02:07:51;;;;;;;143.50;93.00;;;19.20;77.40;;;;;;5071336;28;20017;-62
2024/03/01 02:10:16;;;;;;;141.50;92.43;;;19.30;77.50;;;;;;5071333;28;20052;-62
2024/03/01 02:13:00;;;;;;;144.70;95.63;;;19.30;77.50;;;;;;5071048;28;20507;-62
2024/03/01 02:15:27;;;;;;;137.98;90.93;;;19.30;77.70;;;;;;5071222;28;20066;-62
2024/03/01 02:17:54;;;;;;;137.18;91.13;;;19.30;77.80;;;;;;5069858;28;20557;-62
2024/03/01 02:20:21;;;;;;;142.60;91.60;;;19.30;77.80;;;;;;5070980;28;20030;-62
2024/03/01 02:22:56;;;;;;;136.32;88.55;;;19.30;78.00;;;;;;5063481;28;20566;-63
2024/03/01 02:25:22;;;;;;;139.13;89.97;;;19.30;78.00;;;;;;5071001;28;20540;-63
2024/03/01 02:27:47;;;;;;;136.07;89.03;;;19.30;78.00;;;;;;5069912;28;20055;-62
2024/03/01 02:30:14;;;;;;;136.63;88.53;;;19.30;77.90;;;;;;5071082;28;20074;-61
2024/03/01 02:32:40;;;;;;;131.70;86.03;;;19.30;78.10;;;;;;5070967;28;20032;-61
2024/03/01 02:35:06;;;;;;;132.63;86.20;;;19.30;78.20;;;;;;5071015;28;20029;-61
2024/03/01 02:37:31;;;;;;;135.65;87.85;;;19.30;78.20;;;;;;5070906;28;20021;-64
2024/03/01 02:39:57;;;;;;;131.10;83.63;;;19.30;78.10;;;;;;5070785;28;20514;-61
2024/03/01 02:42:23;;;;;;;130.73;85.10;;;19.30;78.20;;;;;;5070759;28;20032;-62
2024/03/01 02:44:48;;;;;;;130.68;84.88;;;19.30;78.10;;;;;;5071072;28;20023;-63
2024/03/01 02:47:14;;;;;;;125.18;81.97;;;19.30;78.10;;;;;;5070944;28;20020;-63
2024/03/01 02:49:40;;;;;;;132.25;85.20;;;19.30;78.10;;;;;;5070877;28;20073;-64
2024/03/01 02:52:06;;;;;;;125.40;84.15;;;19.30;77.90;;;;;;5070681;28;20074;-62
2024/03/01 02:54:31;;;;;;;124.65;83.32;;;19.30;77.80;;;;;;5070720;28;20020;-62
2024/03/01 02:56:58;;;;;;;125.28;78.78;;;19.30;77.90;;;;;;5070971;28;20038;-62
2024/03/01 02:59:24;;;;;;;123.40;78.03;;;19.30;78.00;;;;;;5069240;28;20029;-62
2024/03/01 03:01:50;;;;;;;123.72;80.40;;;19.30;78.00;;;;;;5070704;28;20510;-61
2024/03/01 03:04:16;;;;;;;121.35;79.03;;;19.30;78.00;;;;;;5070829;28;20020;-62
2024/03/01 03:06:41;;;;;;;124.43;79.32;;;19.30;78.20;;;;;;5070724;28;20047;-62
2024/03/01 03:09:09;;;;;;;121.18;79.18;;;19.30;78.20;;;;;;5070528;28;20104;-62
2024/03/01 03:11:38;;;;;;;123.82;78.68;;;19.30;78.30;;;;;;5070485;28;20024;-62
2024/03/01 03:14:04;;;;;;;116.97;76.80;;;19.30;78.30;;;;;;5069395;28;20031;-62
2024/03/01 03:16:29;;;;;;;121.53;76.75;;;19.30;78.30;;;;;;5070698;28;20496;-62
2024/03/01 03:18:55;;;;;;;116.53;74.55;;;19.30;78.30;;;;;;5070611;28;20059;-63
2024/03/01 03:21:21;;;;;;;117.32;74.72;;;19.30;78.30;;;;;;5071563;28;20093;-62
2024/03/01 03:23:46;;;;;;;111.65;72.18;;;19.30;78.30;;;;;;5068721;28;20032;-62
2024/03/01 03:26:12;;;;;;;115.30;74.68;;;19.30;78.30;;;;;;5074316;28;20032;-62
2024/03/01 03:28:38;;;;;;;110.35;72.28;;;19.30;78.30;;;;;;5074347;28;20027;-61
2024/03/01 03:31:04;;;;;;;114.90;71.75;;;19.30;78.40;;;;;;5074053;28;20028;-62
2024/03/01 03:33:30;;;;;;;109.07;71.15;;;19.30;78.20;;;;;;5074294;28;20031;-62
2024/03/01 03:35:56;;;;;;;110.90;72.53;;;19.30;78.20;;;;;;5074052;28;20443;-61
2024/03/01 03:38:22;;;;;;;111.07;69.80;;;19.30;78.10;;;;;;5073730;28;20028;-61
2024/03/01 03:40:47;;;;;;;109.93;70.32;;;19.30;78.10;;;;;;5074002;28;20040;-61
2024/03/01 03:43:13;;;;;;;108.18;69.47;;;19.30;78.10;;;;;;5073916;28;20078;-60
2024/03/01 03:45:39;;;;;;;101.18;69.85;;;19.40;77.90;;;;;;5073900;28;20021;-61
2024/03/01 03:48:05;;;;;;;104.10;68.78;;;19.30;77.80;;;;;;5073849;28;20024;-60
2024/03/01 03:50:30;;;;;;;107.32;67.30;;;19.30;77.60;;;;;;5073790;28;20469;-61
2024/03/01 03:52:56;;;;;;;102.13;67.40;;;19.40;77.50;;;;;;5073531;28;20488;-61
2024/03/01 03:55:22;;;;;;;104.32;67.32;;;19.30;77.40;;;;;;5073781;28;20024;-61
2024/03/01 03:57:47;;;;;;;96.47;65.15;;;19.30;77.40;;;;;;5073494;28;20056;-61
2024/03/01 04:00:16;;;;;;;101.28;67.05;;;19.30;77.30;;;;;;5072156;28;20124;-61
2024/03/01 04:02:43;;;;;;;99.75;64.45;;;19.30;77.30;;;;;;5072119;28;20044;-62
2024/03/01 04:05:09;;;;;;;105.38;67.80;;;19.30;77.30;;;;;;5073554;28;20507;-61
2024/03/01 04:07:35;;;;;;;96.47;63.60;;;19.30;77.30;;;;;;5073460;28;20103;-62
2024/03/01 04:10:01;;;;;;;95.43;62.97;;;19.30;77.30;;;;;;5073485;28;20492;-63
2024/03/01 04:12:27;;;;;;;97.97;62.17;;;19.30;77.60;;;;;;5073154;28;20028;-62
2024/03/01 04:14:52;;;;;;;97.50;62.67;;;19.40;77.70;;;;;;5073627;28;20463;-62
2024/03/01 04:17:19;;;;;;;100.43;63.40;;;19.30;77.80;;;;;;5073248;28;20107;-64
2024/03/01 04:19:44;;;;;;;101.20;63.00;;;19.30;77.80;;;;;;5073061;28;20023;-64
2024/03/01 04:22:13;;;;;;;97.70;62.08;;;19.30;77.90;;;;;;5065314;28;20029;-64
2024/03/01 04:24:39;;;;;;;93.50;61.63;;;19.30;78.00;;;;;;5073374;28;20028;-63
2024/03/01 04:27:04;;;;;;;93.63;60.22;;;19.30;77.90;;;;;;5073232;28;20408;-62
2024/03/01 04:29:30;;;;;;;96.70;61.72;;;19.30;78.00;;;;;;5073582;28;20028;-63
2024/03/01 04:31:56;;;;;;;94.60;61.38;;;19.30;77.90;;;;;;5073569;28;20029;-63
2024/03/01 04:34:22;;;;;;;93.93;58.67;;;19.30;78.00;;;;;;5074375;28;21409;-63
2024/03/01 04:36:48;;;;;;;92.47;60.97;;;19.30;77.90;;;;;;5070694;28;20028;-63
2024/03/01 04:39:14;;;;;;;85.25;57.15;;;19.40;77.90;;;;;;5073465;28;20036;-62
2024/03/01 04:41:40;;;;;;;88.05;57.65;;;19.40;77.90;;;;;;5073051;28;20066;-62
2024/03/01 04:44:06;;;;;;;88.88;56.95;;;19.30;77.80;;;;;;5072969;28;20024;-62
2024/03/01 04:46:31;;;;;;;87.82;55.42;;;19.30;77.80;;;;;;5072815;28;20016;-62
2024/03/01 04:48:57;;;;;;;89.75;57.72;;;19.30;77.70;;;;;;5072658;28;20036;-62
2024/03/01 04:51:24;;;;;;;88.85;55.83;;;19.30;77.60;;;;;;5072576;28;20031;-62
2024/03/01 04:53:49;;;;;;;88.22;56.58;;;19.30;77.70;;;;;;5072937;28;20142;-61
2024/03/01 04:56:17;;;;;;;81.88;54.17;;;19.30;77.80;;;;;;5072656;28;20111;-64
2024/03/01 04:58:43;;;;;;;87.07;54.00;;;19.30;77.80;;;;;;5072378;28;20028;-63
2024/03/01 05:01:10;;;;;;;86.07;55.30;;;19.30;77.70;;;;;;5072305;28;20035;-63
2024/03/01 05:03:36;;;;;;;85.65;55.35;;;19.30;77.80;;;;;;5072476;28;20025;-62
2024/03/01 05:06:05;;;;;;;80.90;52.92;;;19.30;77.80;;;;;;5072433;28;20135;-62
2024/03/01 05:08:32;;;;;;;82.53;52.25;;;19.30;77.90;;;;;;5072409;28;20031;-62
2024/03/01 05:10:58;;;;;;;78.85;52.40;;;19.30;77.90;;;;;;5071964;28;20460;-61
2024/03/01 05:13:23;;;;;;;82.38;53.83;;;19.30;77.90;;;;;;5072236;28;20059;-62
2024/03/01 05:15:49;;;;;;;80.20;52.40;;;19.30;77.80;;;;;;5072497;28;20032;-62
2024/03/01 05:18:15;;;;;;;80.25;51.13;;;19.30;77.70;;;;;;5071852;28;20120;-61
2024/03/01 05:20:41;;;;;;;78.03;51.60;;;19.40;77.80;;;;;;5071954;28;20023;-62
2024/03/01 05:23:07;;;;;;;77.28;50.50;;;19.40;77.80;;;;;;5064317;28;20115;-62
2024/03/01 05:25:33;;;;;;;75.60;48.67;;;19.30;77.90;;;;;;5072217;28;20150;-64
2024/03/01 05:27:59;;;;;;;76.25;50.92;;;19.40;77.70;;;;;;5070565;28;20048;-65
2024/03/01 05:30:26;;;;;;;76.43;50.28;;;19.30;77.70;;;;;;5071887;28;20035;-64
2024/03/01 05:32:52;;;;;;;82.93;49.35;;;19.30;77.80;;;;;;5071590;28;20028;-64
2024/03/01 05:35:19;;;;;;;73.28;48.97;;;19.30;77.80;;;;;;5071772;28;20029;-64
2024/03/01 05:37:46;;;;;;;71.35;47.22;;;19.30;77.60;;;;;;5071705;28;20073;-61
2024/03/01 05:40:14;;;;;;;76.15;48.80;;;19.30;77.70;;;;;;5071420;28;20506;-61
2024/03/01 05:42:44;;;;;;;75.22;49.47;;;19.30;77.70;;;;;;5070742;28;20059;-61
2024/03/01 05:45:11;;;;;;;72.78;47.63;;;19.30;77.90;;;;;;5071601;28;20392;-62
2024/03/01 05:47:42;;;;;;;72.75;47.65;;;19.40;77.90;;;;;;5071486;28;20050;-60
2024/03/01 05:50:11;;;;;;;72.45;46.72;;;19.40;78.00;;;;;;5071405;28;20032;-61
2024/03/01 05:52:42;;;;;;;72.35;46.25;;;19.40;78.10;;;;;;5071284;28;20400;-62
2024/03/01 05:55:12;;;;;;;70.50;46.45;;;19.40;78.20;;;;;;5070192;28;20025;-62
2024/03/01 05:57:39;;;;;;;69.47;46.47;;;19.40;78.30;;;;;;5065809;28;20086;-63
2024/03/01 06:00:17;;;;;;;66.68;44.00;;;19.40;78.40;;;;;;5079697;23;20143;-66
2024/03/01 06:02:44;;;;;;;75.35;44.70;;;19.40;78.40;;;;;;5068999;28;20395;-68
2024/03/01 06:05:10;;;;;;;79.10;44.17;;;19.40;78.50;;;;;;5069856;28;20017;-66
2024/03/01 06:07:36;;;;;;;68.78;43.15;;;19.40;78.50;;;;;;5070002;28;20085;-66
2024/03/01 06:10:02;;;;;;;71.28;42.65;;;19.40;78.30;;;;;;5069862;28;20103;-66
2024/03/01 06:12:28;;;;;;;68.50;41.50;;;19.40;78.10;;;;;;5069596;28;20033;-69
2024/03/01 06:14:53;;;;;;;74.05;42.85;;;19.40;78.00;;;;;;5070287;28;20543;-67
2024/03/01 06:17:19;;;;;;;80.20;44.67;;;19.40;78.40;;;;;;5070072;28;20060;-67
2024/03/01 06:19:45;;;;;;;47.63;32.75;;;19.40;76.40;;;;;;5069723;28;20028;-65
2024/03/01 06:22:10;;;;;;;42.22;30.98;;;17.90;64.90;;;;;;5062163;28;20029;-66
2024/03/01 06:24:36;;;;;;;35.75;28.30;;;;;;;;;;5070206;28;20028;-65
2024/03/01 06:27:02;;;;;;;43.92;30.95;;;;;;;;;;5069954;28;20075;-64
2024/03/01 06:29:28;;;;;;;61.75;36.35;;;;;;;;;;5061621;28;20023;-67
2024/03/01 06:31:54;;;;;;;58.10;35.30;;;;;;;;;;5069839;28;20024;-64
2024/03/01 06:34:21;;;;;;;63.80;37.65;;;;;;;;;;5069793;28;20118;-66
2024/03/01 06:36:47;;;;;;;56.28;34.83;;;;;;;;;;5070059;28;20032;-65
2024/03/01 06:39:14;;;;;;;55.10;33.72;;;;;;;;;;5069420;28;20441;-65
2024/03/01 06:41:40;;;;;;;48.22;32.42;;;;;;;;;;5069524;28;20040;-67
2024/03/01 06:44:06;;;;;;;52.35;33.45;;;;;;;;;;5069581;28;20048;-65
2024/03/01 06:46:32;;;;;;;48.83;32.13;;;;;;;;;;5069570;28;20023;-65
2024/03/01 06:49:00;;;;;;;50.78;32.17;;;;;;;;;;5069566;28;20025;-67
2024/03/01 06:51:27;;;;;;;47.38;31.35;;;;;;;;;;5067446;28;20130;-66
2024/03/01 06:53:53;;;;;;;41.53;28.27;;;;;;;;;;5070182;28;20103;-67
2024/03/01 06:56:19;;;;;;;43.55;28.67;;;;;;;;;;5072878;28;20120;-67
2024/03/01 06:58:45;;;;;;;43.15;28.98;;;;;;;;;;5074025;28;20035;-68
2024/03/01 07:01:11;;;;;;;41.03;28.58;;;;;;;;;;5072534;28;20041;-69
2024/03/01 07:03:37;;;;;;;39.50;27.60;;;18.70;76.60;;;;;;5074068;28;20027;-66
2024/03/01 07:06:02;;;;;;;46.03;28.50;;;18.80;76.70;;;;;;5073955;28;20028;-67
2024/03/01 07:08:28;;;;;;;42.55;27.38;;;18.80;76.60;;;;;;5073641;28;20028;-67
2024/03/01 07:10:54;;;;;;;49.78;27.83;;;18.90;76.60;;;;;;5073475;28;20031;-67
2024/03/01 07:13:21;;;;;;;47.78;27.35;;;18.90;76.60;;;;;;5074233;28;20086;-67
2024/03/01 07:15:47;;;;;;;53.72;27.67;;;18.90;76.60;;;;;;5073906;28;20051;-66
2024/03/01 07:18:13;;;;;;;39.10;27.35;;;19.00;76.50;;;;;;5073935;28;20047;-67
2024/03/01 07:20:39;;;;;;;44.83;28.80;;;19.00;76.40;;;;;;5073575;28;20020;-67
2024/03/01 07:23:04;;;;;;;44.63;26.83;;;19.00;76.20;;;;;;5073727;28;20496;-66
2024/03/01 07:25:30;;;;;;;44.20;27.60;;;19.00;76.10;;;;;;5073590;28;20068;-67
2024/03/01 07:27:55;;;;;;;39.38;26.42;;;19.00;76.00;;;;;;5073582;28;20028;-67
2024/03/01 07:30:21;;;;;;;41.05;26.40;;;19.10;75.90;;;;;;5073420;28;20025;-67
2024/03/01 07:32:47;;;;;;;43.30;26.75;;;19.10;75.80;;;;;;5073868;28;20040;-67
2024/03/01 07:35:12;;;;;;;41.50;25.50;;;19.10;75.70;;;;;;5074720;28;20154;-67
2024/03/01 07:37:39;;;;;;;41.20;26.05;;;;;;;;;;5074535;28;20173;-67
2024/03/01 07:40:06;;;;;;;40.42;26.02;;;;;;;;;;5074219;28;20025;-67
2024/03/01 07:42:32;;;;;;;36.95;24.30;;;;;;;;;;5074067;28;20025;-68
2024/03/01 07:44:58;;;;;;;46.70;25.05;;;;;;;;;;5074383;28;20066;-66
2024/03/01 07:47:29;;;;;;;43.25;27.27;;;;;;;;;;5074445;28;20024;-67
2024/03/01 07:49:56;;;;;;;38.08;23.90;;;19.30;74.90;;;;;;5073130;28;20025;-66
2024/03/01 07:52:21;;;;;;;39.83;25.55;;;19.30;75.10;;;;;;5074048;28;20032;-66
2024/03/01 07:54:47;;;;;;;36.72;24.17;;;19.20;75.10;;;;;;5074183;28;20035;-67
2024/03/01 07:57:14;;;;;;;39.45;23.75;;;19.30;75.00;;;;;;5073953;28;20029;-67
2024/03/01 07:59:40;;;;;;;35.70;21.70;;;19.30;75.10;;;;;;5073864;28;20090;-66
2024/03/01 08:02:08;;;;;;;34.78;22.67;;;19.20;75.10;;;;;;5072167;28;20526;-69
2024/03/01 08:04:34;;;;;;;31.38;22.67;;;19.20;75.20;;;;;;5073980;28;20036;-67
2024/03/01 08:07:00;;;;;;;34.17;22.15;;;19.20;75.20;;;;;;5073321;28;20392;-67
2024/03/01 08:09:36;;;;;;;37.72;23.13;;;19.10;75.20;;;;;;5073809;28;20450;-66
2024/03/01 08:12:05;;;;;;;36.63;22.92;;;19.10;75.30;;;;;;5073810;28;20028;-67
2024/03/01 08:14:33;;;;;;;37.88;22.98;;;19.10;75.20;;;;;;5073867;28;20036;-67
2024/03/01 08:16:58;;;;;;;32.78;22.27;;;19.10;75.20;;;;;;5074331;28;20028;-67
2024/03/01 08:19:46;;;;;;;33.72;21.83;;;19.10;75.20;;;;;;5073794;28;20464;-66
2024/03/01 08:22:19;;;;;;;33.90;22.55;;;19.10;75.30;;;;;;5072456;28;20036;-68
2024/03/01 08:24:47;;;;;;;34.70;21.92;;;19.10;75.20;;;;;;5073457;28;20503;-66
2024/03/01 08:27:22;;;;;;;31.50;20.95;;;19.10;75.20;;;;;;5073626;28;20502;-66
2024/03/01 08:29:47;;;;;;;33.65;22.40;;;19.10;75.20;;;;;;5073513;28;20031;-66
2024/03/01 08:32:39;;;;;;;32.75;21.73;;;19.10;75.20;;;;;;5073171;28;20024;-67
2024/03/01 08:35:07;;;;;;;31.35;20.40;;;19.10;75.20;;;;;;5073497;28;20373;-67
2024/03/01 08:37:33;;;;;;;37.42;21.98;;;19.10;75.10;;;;;;5073447;28;20058;-67
2024/03/01 08:40:00;;;;;;;34.40;22.08;;;19.10;75.00;;;;;;5073123;28;20039;-67
2024/03/01 08:42:32;;;;;;;30.63;20.58;;;19.20;75.00;;;;;;5073329;28;20103;-67
2024/03/01 08:44:59;;;;;;;29.92;20.42;;;19.20;75.00;;;;;;5071950;28;20020;-66
2024/03/01 08:47:27;;;;;;;30.00;21.05;;;19.20;75.00;;;;;;5073518;28;20047;-66
2024/03/01 08:50:12;;;;;;;32.97;21.58;;;19.20;74.90;;;;;;5073090;28;20035;-66
2024/03/01 08:52:38;;;;;;;30.52;20.42;;;19.20;74.90;;;;;;5072928;28;20028;-67
2024/03/01 08:55:09;;;;;;;30.35;20.05;;;19.20;74.90;;;;;;5073130;28;20027;-67
2024/03/01 08:57:37;;;;;;;31.80;19.67;;;19.20;74.90;;;;;;5072898;28;20024;-66
2024/03/01 09:00:04;;;;;;;27.77;19.33;;;19.20;74.80;;;;;;5071070;28;20069;-66
2024/03/01 09:02:46;;;;;;;29.52;19.65;;;19.20;74.80;;;;;;5072836;28;20052;-67
2024/03/01 09:05:14;;;;;;;30.50;20.92;;;19.10;74.80;;;;;;5072938;28;20020;-68
2024/03/01 09:07:40;;;;;;;31.08;20.45;;;19.20;74.90;;;;;;5073089;28;20442;-66
2024/03/01 09:10:27;;;;;;;29.52;19.95;;;19.10;74.80;;;;;;5072309;28;20037;-66
2024/03/01 09:12:53;;;;;;;30.38;19.77;;;19.10;74.90;;;;;;5072349;28;20028;-66
2024/03/01 09:15:24;;;;;;;30.73;19.67;;;19.10;74.90;;;;;;5072909;28;20141;-67
2024/03/01 09:17:51;;;;;;;28.77;19.15;;;19.10;74.90;;;;;;5070392;28;20033;-66
2024/03/01 09:20:37;;;;;;;28.88;19.75;;;19.10;74.80;;;;;;5072444;28;20114;-67
2024/03/01 09:23:12;;;;;;;28.67;18.42;;;19.10;74.80;;;;;;5072143;28;20063;-66
2024/03/01 09:26:00;;;;;;;27.30;17.90;;;19.10;74.80;;;;;;5072752;28;20016;-68
2024/03/01 09:28:25;;;;;;;28.08;19.05;;;19.10;74.80;;;;;;5072986;28;20025;-67
2024/03/01 09:30:55;;;;;;;28.42;18.88;;;19.10;74.80;;;;;;5072231;28;20017;-66
2024/03/01 09:33:23;;;;;;;30.23;18.35;;;19.10;74.90;;;;;;5067273;28;20021;-66
2024/03/01 09:35:52;;;;;;;28.48;19.05;;;19.00;74.90;;;;;;5072324;28;20021;-67
2024/03/01 09:38:20;;;;;;;27.02;17.55;;;19.00;74.80;;;;;;5072489;28;20027;-66
2024/03/01 09:40:51;;;;;;;26.08;17.77;;;19.00;74.90;;;;;;5072095;28;20495;-66
2024/03/01 09:43:35;;;;;;;24.10;17.05;;;19.00;74.90;;;;;;5074231;28;20039;-67
2024/03/01 09:46:14;;;;;;;25.88;17.15;;;19.00;74.90;;;;;;5076141;28;20054;-67
2024/03/01 09:48:46;;;;;;;25.20;17.48;;;19.10;75.00;;;;;;5089694;28;20088;-68
2024/03/01 09:51:14;;;;;;;27.92;18.05;;;19.00;75.30;;;;;;5093591;28;20069;-68
2024/03/01 09:53:58;;;;;;;34.40;18.42;;;19.10;75.50;;;;;;5092008;28;20032;-68
2024/03/01 09:56:39;;;;;;;74.70;29.35;;;19.00;75.70;;;;;;5092343;28;20040;-67
2024/03/01 09:59:36;;;;;;;39.78;29.42;;;18.00;62.40;;;;;;5072082;28;20035;-66
2024/03/01 10:02:23;;;;;;;36.28;29.35;;;16.90;62.10;;;;;;5071766;28;20044;-68
2024/03/01 10:04:58;;;;;;;41.63;29.90;;;16.30;63.40;;;;;;5071809;28;20024;-67
2024/03/01 10:07:35;;;;;;;40.83;30.25;;;16.10;66.60;;;;;;5071842;28;20051;-68
2024/03/01 10:10:04;;;;;;;41.42;29.27;;;16.10;64.10;;;;;;5071697;28;20108;-67
2024/03/01 10:12:56;;;;;;;39.47;29.83;;;16.00;65.10;;;;;;5071529;28;20024;-67
2024/03/01 10:15:47;;;;;;;38.90;28.60;;;15.90;64.90;;;;;;5071862;28;20495;-67
2024/03/01 10:18:31;;;;;;;38.83;28.15;;;16.20;65.60;;;;;;5071723;28;20028;-67
2024/03/01 10:21:34;;;;;;;35.47;27.80;;;16.50;68.40;;;;;;5071295;28;20024;-67
2024/03/01 10:24:21;;;;;;;36.47;26.05;;;16.90;70.10;;;;;;5071607;28;20028;-67
2024/03/01 10:27:08;;;;;;;32.47;24.63;;;17.10;70.80;;;;;;5071510;28;20028;-67
2024/03/01 10:30:03;;;;;;;33.35;25.50;;;17.30;71.00;;;;;;5070923;28;20560;-67
2024/03/01 10:32:51;;;;;;;29.35;23.58;;;17.50;71.20;;;;;;5054132;28;20047;-67
2024/03/01 10:35:24;;;;;;;30.20;22.67;;;17.60;71.20;;;;;;5071583;28;20035;-67
2024/03/01 10:38:26;;;;;;;28.58;22.48;;;17.70;71.20;;;;;;5071749;28;20029;-67
2024/03/01 10:41:01;;;;;;;27.67;20.63;;;17.90;71.30;;;;;;5071362;28;20085;-67
2024/03/01 10:43:30;;;;;;;28.00;20.70;;;17.90;71.30;;;;;;5071379;28;20028;-67
2024/03/01 10:46:24;;;;;;;27.50;19.90;;;18.00;71.30;;;;;;5071443;28;20040;-67
2024/03/01 10:49:02;;;;;;;23.27;19.52;;;18.00;71.30;;;;;;5071870;28;20440;-67
2024/03/01 10:51:35;;;;;;;21.70;18.50;;;18.10;71.30;;;;;;5071329;28;20052;-67
2024/03/01 10:54:05;;;;;;;22.52;18.48;;;18.20;71.30;;;;;;5071280;28;20508;-67
2024/03/01 10:56:31;;;;;;;23.55;18.60;;;18.20;71.30;;;;;;5071616;28;20117;-67
2024/03/01 10:59:06;;;;;;;21.25;16.65;;;18.30;71.30;;;;;;5071204;28;20059;-67
2024/03/01 11:01:50;;;;;;;22.30;17.63;;;18.40;71.30;;;;;;5071238;28;20074;-66
2024/03/01 11:04:37;;;;;;;23.85;18.27;;;18.40;71.40;;;;;;5071308;28;20037;-65
2024/03/01 11:07:31;;;;;;;24.05;15.82;;;18.50;71.80;;;;;;5069929;28;20021;-65
2024/03/01 11:10:13;;;;;;;21.35;15.55;;;18.50;72.00;;;;;;5071108;28;20448;-65
2024/03/01 11:13:07;;;;;;;26.50;15.93;;;18.60;72.20;;;;;;5070997;28;20020;-65
2024/03/01 11:15:35;;;;;;;26.23;16.08;;;18.70;72.30;;;;;;5064022;28;20032;-65
2024/03/01 11:18:05;;;;;;;22.80;15.82;;;18.70;72.30;;;;;;5069763;28;20103;-64
2024/03/01 11:20:44;;;;;;;25.88;16.00;;;18.70;72.30;;;;;;5070636;28;20078;-64
2024/03/01 11:23:20;;;;;;;20.48;15.48;;;18.70;72.40;;;;;;5071000;28;20112;-65
2024/03/01 11:25:52;;;;;;;20.27;15.68;;;18.80;72.30;;;;;;5070661;28;20119;-64
2024/03/01 11:28:23;;;;;;;20.50;15.25;;;18.80;72.20;;;;;;5051093;28;20032;-64
2024/03/01 11:30:50;;;;;;;;;;;18.80;72.20;;;;;;5051150;28;20064;-64
2024/03/01 11:33:20;;;;;;;18.98;14.45;;;18.80;72.10;;;;;;5051054;28;19905;-64
2024/03/01 11:35:47;;;;;;;18.27;13.48;;;18.80;72.10;;;;;;5050962;28;20108;-65
2024/03/01 11:38:32;;;;;;;17.85;13.85;;;18.80;72.20;;;;;;5050805;28;20025;-64
2024/03/01 11:41:28;;;;;;;21.02;14.02;;;18.90;72.10;;;;;;5051745;28;20044;-64
2024/03/01 11:44:06;;;;;;;18.02;13.75;;;18.90;72.10;;;;;;5054534;28;20508;-65
2024/03/01 11:46:46;;;;;;;17.05;13.65;;;18.90;72.10;;;;;;5054485;28;20075;-65
2024/03/01 11:49:15;;;;;;;18.38;13.70;;;18.90;72.00;;;;;;5054675;28;20021;-64
2024/03/01 11:52:14;;;;;;;18.92;14.10;;;18.90;72.00;;;;;;5054368;28;20024;-66
2024/03/01 11:55:03;;;;;;;23.02;13.35;;;18.90;72.00;;;;;;5054387;28;20032;-65
2024/03/01 11:57:42;;;;;;;18.63;13.57;;;18.90;71.90;;;;;;5054313;28;20041;-65
2024/03/01 12:00:28;;;;;;;20.08;14.00;;;18.90;71.80;;;;;;5075985;23;20180;-62
2024/03/01 12:03:15;;;;;;;14.75;13.02;;;18.90;71.80;;;;;;4993699;28;20113;-61
2024/03/01 12:05:57;;;;;;;21.08;13.43;;;19.00;71.80;;;;;;4994685;28;20026;-61
2024/03/01 12:08:36;;;;;;;18.80;13.65;;;19.00;71.80;;;;;;4993394;28;20022;-61
2024/03/01 12:11:05;;;;;;;16.75;12.20;;;19.00;71.90;;;;;;4986133;28;20042;-60
2024/03/01 12:13:34;;;;;;;17.48;12.98;;;19.00;72.00;;;;;;4975208;28;20482;-61
2024/03/01 12:16:12;;;;;;;21.20;12.73;;;19.00;72.00;;;;;;4975240;28;20027;-60
2024/03/01 12:18:45;;;;;;;16.23;12.57;;;19.00;72.10;;;;;;4984995;28;20030;-61
2024/03/01 12:21:10;;;;;;;19.48;12.85;;;19.00;72.20;;;;;;4994248;28;20029;-60
2024/03/01 12:24:15;;;;;;;19.73;12.52;;;19.00;72.30;;;;;;4994203;28;20031;-62
2024/03/01 12:27:03;;;;;;;18.13;12.35;;;19.00;72.40;;;;;;4994368;28;20026;-62
2024/03/01 12:29:52;;;;;;;20.10;12.25;;;19.00;72.60;;;;;;4994073;28;20154;-61
2024/03/01 12:32:55;;;;;;;18.33;12.45;;;19.00;72.70;;;;;;4992405;28;20030;-61
2024/03/01 12:35:34;;;;;;;16.45;12.05;;;19.00;72.70;;;;;;4994040;28;20061;-62
2024/03/01 12:38:30;;;;;;;20.38;12.63;;;19.00;72.70;;;;;;4994314;28;20080;-62
2024/03/01 12:41:12;;;;;;;26.65;13.10;;;19.00;72.70;;;;;;4993953;28;20026;-62
2024/03/01 12:43:56;;;;;;;16.70;12.40;;;19.00;72.70;;;;;;4993851;28;20394;-62